Terminal Aerodrome Forecast
Issued by NWS Shreveport, LA

Home | Current Version | Previous Version | Text Only | Print | Product List | Glossary On
Versions: 1 2 3 4 5 6 7 8 9 10 11 12 13 14 15 16 17 18
053
FTUS44 KSHV 270521
TAFLFK
TAF
KLFK 270521Z 2706/2806 VRB04KT P6SM FEW040 BKN250
     FM270900 VRB03KT 6SM BR FEW025 SCT070 BKN250
      TEMPO 2710/2713 3SM BR
     FM271500 11007KT P6SM SCT035 SCT100 SCT250=

USA.gov is the U.S. government's official web portal to all federal, state and local government web resources and services.